Flight Track Log - Related Links

Times and Time Zones

All times are in EDT time to prevent confusion due to time zone crossing. See the AAL2007 flight status page for this flight to view local times or setup timezone preferences in your user account.

Time Position Orientation Groundspeed Altitude Reporting Facility
EDT Latitude Longitude Course Direction KTS MPH feet Rate Location/Type
Sat 06:04:01 PM 41.9167 -87.9167 207° Southwest 198 228 3,100  Level Chicago TRACON
Sat 06:04:42 PM 41.8694 -87.9139 177° South 244 281 4,400 2,854 Climbing Chicago Center
Sat 06:05:00 PM 41.8047 -88.0842 201° Southwest  Level Estimated
Sat 06:05:44 PM 41.8036 -87.9522 203° Southwest 255 293 8,000  Level Chicago Center
Sat 06:06:00 PM 41.6942 -88.0837 180° South  Level FlightAware Approximate
Sat 06:06:46 PM 41.7347 -87.9914 203° Southwest 268 308 10,800  Level Chicago Center
Sat 06:07:00 PM 41.6059 -88.1725 197° South  Level Estimated
Sat 06:07:48 PM 41.6617 -88.0331 203° Southwest 285 328 13,500  Level Chicago Center
Sat 06:08:00 PM 41.4960 -88.1582 174° South  Level FlightAware Approximate
Sat 06:08:49 PM 41.5794 -88.0808 203° Southwest 323 372 15,000  Level Chicago Center
Sat 06:09:00 PM 41.4115 -88.2438 207° Southwest  Level Estimated
Sat 06:09:51 PM 41.4683 -88.1439 203° Southwest 369 425 17,800  Level Chicago Center
Sat 06:10:53 PM 41.3717 -88.1964 202° Southwest 392 451 20,000 2,032 Climbing Chicago Center
Sat 06:11:55 PM 41.2661 -88.2419 198° South 404 465 22,000 2,049 Climbing Chicago Center
Sat 06:12:56 PM 41.1364 -88.3025 199° South 415 478 24,200 1,951 Climbing Chicago Center
Sat 06:13:58 PM 41.0261 -88.3522 199° South 420 483 26,000 1,742 Climbing Chicago Center
Sat 06:15:00 PM 40.9122 -88.4017 198° South 431 496 27,800 1,645 Climbing Chicago Center
Sat 06:16:02 PM 40.8233 -88.4983 219° Southwest 417 480 29,400 1,355 Climbing Chicago Center
Sat 06:17:04 PM 40.7325 -88.5975 220° Southwest 423 487 30,600 1,171 Climbing Chicago Center
Sat 06:18:05 PM 40.6381 -88.6933 218° Southwest 430 495 31,800 683 Climbing Chicago Center
Sat 06:19:07 PM 40.5242 -88.8092 218° Southwest 433 498 32,000 97 Climbing Chicago Center
Sat 06:20:09 PM 40.4444 -88.8908 218° Southwest 430 495 32,000  Level Chicago Center
Sat 06:21:11 PM 40.3500 -88.9867 218° Southwest 428 493 32,000  Level Chicago Center
Sat 06:22:12 PM 40.2361 -89.1053 219° Southwest 433 498 32,000  Level Chicago Center
Sat 06:23:14 PM 40.1406 -89.2019 218° Southwest 433 498 32,000  Level Chicago Center
Sat 06:23:55 PM 40.0814 -89.2614 218° Southwest 435 501 32,000  Level Kansas City Center
Sat 06:24:55 PM 39.9856 -89.3586 218° Southwest 434 499 32,000  Level Kansas City Center
Sat 06:25:18 PM 39.9483 -89.3972 218° Southwest 437 503 32,000  Level Chicago Center
Sat 06:25:55 PM 39.8897 -89.4547 217° Southwest 434 499 32,000  Level Kansas City Center
Sat 06:26:57 PM 39.7953 -89.5517 218° Southwest 431 496 32,000  Level Kansas City Center
Sat 06:27:58 PM 39.6869 -89.6608 218° Southwest 430 495 32,000  Level Kansas City Center
Sat 06:29:02 PM 39.5922 -89.7569 218° Southwest 432 497 32,000  Level Kansas City Center
Sat 06:30:02 PM 39.4969 -89.8511 217° Southwest 431 496 32,000  Level Kansas City Center
Sat 06:31:02 PM 39.4019 -89.9461 218° Southwest 433 498 32,000  Level Kansas City Center
Sat 06:32:03 PM 39.3078 -90.0417 218° Southwest 432 497 32,000  Level Kansas City Center
Sat 06:33:07 PM 39.2131 -90.1358 218° Southwest 432 497 32,000  Level Kansas City Center
Sat 06:34:07 PM 39.1178 -90.2306 218° Southwest 433 498 32,000  Level Kansas City Center
Sat 06:35:08 PM 39.0222 -90.3244 217° Southwest 434 499 32,000  Level Kansas City Center
Sat 06:36:10 PM 38.9194 -90.4264 218° Southwest 433 498 32,000  Level Kansas City Center
Sat 06:37:10 PM 38.8256 -90.5250 219° Southwest 434 499 32,000  Level Kansas City Center
Sat 06:38:11 PM 38.7333 -90.6256 220° Southwest 435 501 32,000  Level Kansas City Center
Sat 06:39:14 PM 38.6400 -90.7375 223° Southwest 437 503 32,000  Level Kansas City Center
Sat 06:40:13 PM 38.5508 -90.8400 222° Southwest 435 501 32,000  Level Kansas City Center
Sat 06:41:17 PM 38.4622 -90.9425 222° Southwest 431 496 32,000  Level Kansas City Center
Sat 06:42:17 PM 38.3725 -91.0439 222° Southwest 432 497 32,000  Level Kansas City Center
Sat 06:43:18 PM 38.2644 -91.1650 221° Southwest 431 496 32,000  Level Kansas City Center
Sat 06:44:20 PM 38.1758 -91.2686 223° Southwest 434 499 32,000  Level Kansas City Center
Sat 06:45:21 PM 38.0892 -91.3647 221° Southwest 424 488 32,000  Level Kansas City Center
Sat 06:46:21 PM 37.9997 -91.4664 222° Southwest 424 488 32,000  Level Kansas City Center
Sat 06:47:25 PM 37.9100 -91.5672 222° Southwest 426 490 32,000  Level Kansas City Center
Sat 06:48:25 PM 37.8200 -91.6686 222° Southwest 428 493 32,000  Level Kansas City Center
Sat 06:49:27 PM 37.7283 -91.7703 221° Southwest 431 496 32,000  Level Kansas City Center
Sat 06:50:27 PM 37.6389 -91.8708 222° Southwest 428 493 32,000  Level Kansas City Center
Sat 06:51:29 PM 37.5483 -91.9711 221° Southwest 428 493 32,000  Level Kansas City Center
Sat 06:52:31 PM 37.4578 -92.0717 221° Southwest 430 495 32,000  Level Kansas City Center
Sat 06:53:32 PM 37.3689 -92.1717 222° Southwest 427 491 32,000  Level Kansas City Center
Sat 06:54:32 PM 37.2800 -92.2669 220° Southwest 422 486 32,000  Level Kansas City Center
Sat 06:55:36 PM 37.1750 -92.3822 221° Southwest 419 482 32,000  Level Kansas City Center
Sat 06:56:37 PM 37.0864 -92.4783 221° Southwest 418 481 32,000  Level Kansas City Center
Sat 06:57:38 PM 36.9961 -92.5756 221° Southwest 422 486 32,000  Level Kansas City Center
Sat 06:58:39 PM 36.9069 -92.6728 221° Southwest 424 488 32,000  Level Kansas City Center
Sat 06:59:41 PM 36.8183 -92.7678 221° Southwest 422 486 32,000  Level Kansas City Center
Sat 07:00:42 PM 36.7306 -92.8619 221° Southwest 417 480 32,000  Level Kansas City Center
Sat 07:01:42 PM 36.6417 -92.9569 221° Southwest 419 482 32,000  Level Kansas City Center
Sat 07:02:43 PM 36.5581 -93.0475 221° Southwest 421 484 32,000  Level Kansas City Center
Sat 07:03:47 PM 36.4700 -93.1392 220° Southwest 418 481 32,000  Level Kansas City Center
Sat 07:04:47 PM 36.3642 -93.2531 221° Southwest 419 482 32,000  Level Kansas City Center
Sat 07:05:08 PM 36.3283 -93.2936 222° Southwest 422 486 32,000  Level Memphis Center
Sat 07:06:08 PM 36.2386 -93.3856 220° Southwest 422 486 32,000  Level Memphis Center
Sat 07:07:08 PM 36.1508 -93.4800 221° Southwest 422 486 32,000  Level Memphis Center
Sat 07:08:08 PM 36.0608 -93.5742 220° Southwest 422 486 32,000  Level Memphis Center
Sat 07:09:08 PM 35.9750 -93.6658 221° Southwest 422 486 32,000 150 Level Memphis Center
Sat 07:10:08 PM 35.8850 -93.7569 219° Southwest 422 486 32,300 950 Climbing Memphis Center
Sat 07:11:08 PM 35.7969 -93.8506 221° Southwest 422 486 33,900 850 Climbing Memphis Center
Sat 07:12:08 PM 35.7111 -93.9364 219° Southwest 417 480 34,000 50 Climbing Memphis Center
Sat 07:13:08 PM 35.6250 -94.0272 221° Southwest 417 480 34,000  Level Memphis Center
Sat 07:14:08 PM 35.5411 -94.1153 221° Southwest 411 473 34,000  Level Memphis Center
Sat 07:15:08 PM 35.4508 -94.2056 219° Southwest 411 473 34,000  Level Memphis Center
Sat 07:16:08 PM 35.3625 -94.2906 218° Southwest 411 473 34,000  Level Memphis Center
Sat 07:17:08 PM 35.2664 -94.3625 211° Southwest 411 473 34,000  Level Memphis Center
Sat 07:19:29 PM 35.0417 -94.5378 213° Southwest 405 466 34,000  Level Fort Worth Center
Sat 07:20:28 PM 34.9433 -94.6147 213° Southwest 416 479 34,000  Level Fort Worth Center
Sat 07:21:28 PM 34.8469 -94.6886 212° Southwest 421 484 34,000  Level Fort Worth Center
Sat 07:22:29 PM 34.7464 -94.7678 213° Southwest 421 484 34,000  Level Fort Worth Center
Sat 07:23:29 PM 34.6497 -94.8364 210° Southwest 421 484 34,000  Level Fort Worth Center
Sat 07:24:29 PM 34.5531 -94.9097 212° Southwest 421 484 34,000  Level Fort Worth Center
Sat 07:25:29 PM 34.4567 -94.9831 212° Southwest 421 484 34,000  Level Fort Worth Center
Sat 07:26:29 PM 34.3600 -95.0564 212° Southwest 421 484 34,000  Level Fort Worth Center
Sat 07:27:29 PM 34.2611 -95.1269 211° Southwest 421 484 34,000  Level Fort Worth Center
Sat 07:28:29 PM 34.1622 -95.1997 211° Southwest 421 484 34,000  Level Fort Worth Center
Sat 07:29:29 PM 34.0633 -95.2750 212° Southwest 426 490 34,000  Level Fort Worth Center
Sat 07:30:29 PM 33.9644 -95.3450 210° Southwest 421 484 34,000  Level Fort Worth Center
Sat 07:31:29 PM 33.8633 -95.4200 212° Southwest 426 490 34,000  Level Fort Worth Center
Sat 07:32:29 PM 33.7622 -95.4922 211° Southwest 426 490 34,000  Level Fort Worth Center
Sat 07:33:29 PM 33.6631 -95.5667 212° Southwest 426 490 34,000  Level Fort Worth Center
Sat 07:34:29 PM 33.5742 -95.6283 210° Southwest 419 482 34,000  Level Fort Worth Center
Sat 07:35:29 PM 33.4753 -95.7050 213° Southwest 424 488 34,000  Level Fort Worth Center
Sat 07:36:29 PM 33.3717 -95.7767 210° Southwest 424 488 34,000  Level Fort Worth Center
Sat 07:37:29 PM 33.2683 -95.8506 211° Southwest 429 494 34,000  Level Fort Worth Center
Sat 07:38:29 PM 33.1586 -95.9319 212° Southwest 429 494 34,000  Level Fort Worth Center
Sat 07:39:29 PM 33.0553 -96.0056 211° Southwest 429 494 34,000  Level Fort Worth Center
Sat 07:40:29 PM 32.9558 -96.0789 212° Southwest 429 494 34,000 -50 Level Fort Worth Center
Sat 07:41:29 PM 32.8542 -96.1497 210° Southwest 429 494 33,900 -303 Descending Fort Worth Center
Sat 07:42:28 PM 32.7525 -96.2228 211° Southwest 423 487 33,400 -450 Descending Fort Worth Center
Sat 07:43:29 PM 32.6550 -96.2931 211° Southwest 423 487 33,000 -198 Descending Fort Worth Center
Sat 07:44:29 PM 32.5556 -96.3608 210° Southwest 423 487 33,000  Level Fort Worth Center
Sat 07:45:29 PM 32.4517 -96.4361 211° Southwest 423 487 33,000  Level Fort Worth Center
Sat 07:46:29 PM 32.3519 -96.5083 211° Southwest 423 487 33,000 -150 Level Fort Worth Center
Sat 07:47:29 PM 32.2503 -96.5806 211° Southwest 423 487 32,700 -850 Descending Fort Worth Center
Sat 07:48:29 PM 32.1464 -96.6503 210° Southwest 423 487 31,300 -1,500 Descending Fort Worth Center
Sat 07:49:29 PM 32.0425 -96.7272 212° Southwest 433 498 29,700 -1,500 Descending Fort Worth Center
Sat 07:50:29 PM 31.9425 -96.7989 211° Southwest 438 504 28,300 -1,450 Descending Fort Worth Center
Sat 07:51:29 PM 31.8322 -96.8778 211° Southwest 443 510 26,800 -1,250 Descending Fort Worth Center
Sat 07:52:29 PM 31.7261 -96.9492 210° Southwest 450 518 25,800 -960 Descending Fort Worth Center
Sat 07:53:34 PM 31.6192 -97.0208 210° Southwest 459 528 24,800 -952 Descending Houston Center
Sat 07:54:35 PM 31.5086 -97.0914 209° Southwest 451 519 23,800 -1,171 Descending Houston Center
Sat 07:55:37 PM 31.3711 -97.1458 199° South 442 509 22,400 -1,659 Descending Houston Center
Sat 07:56:38 PM 31.2536 -97.1919 199° South 440 506 20,400 -2,000 Descending Houston Center
Sat 07:57:40 PM 31.1372 -97.2375 199° South 437 503 18,300 -2,049 Descending Houston Center
Sat 07:58:41 PM 31.0272 -97.2811 199° South 420 483 16,200 -1,967 Descending Houston Center
Sat 07:59:42 PM 30.9203 -97.3222 198° South 421 484 14,300 -1,756 Descending Houston Center
Sat 08:00:44 PM 30.8153 -97.3622 198° South 399 459 12,600 -1,317 Descending Houston Center
Sat 08:01:45 PM 30.7297 -97.3953 198° South 325 374 11,600 -1,220 Descending Houston Center
Sat 08:02:47 PM 30.6406 -97.4347 201° Southwest 297 342 10,100 -1,610 Descending Houston Center
Sat 08:03:48 PM 30.5733 -97.4889 215° Southwest 289 333 8,300 -1,672 Descending Houston Center
Sat 08:04:49 PM 30.5028 -97.5358 210° Southwest 291 335 6,700 -1,463 Descending Houston Center
Sat 08:05:51 PM 30.4431 -97.5781 211° Southwest 260 299 5,300 -1,317 Descending Houston Center
Sat 08:06:52 PM 30.3869 -97.6167 211° Southwest 238 274 4,000 -1,279 Descending Houston Center

Login

Don't have an account? Register now (free) for customized features, flight alerts, and more!